Terminal Aerodrome Forecast
Issued by NWS

Home | Current Version | Previous Version | Text Only | Print | Product List | Glossary On
Versions: 1 2 3 4 5 6 7 8 9 10 11 12 13 14 15
000
FTUS43 KMQT 030521
TAFCMX
TAF
KCMX 030521Z 0306/0406 VRB04KT P6SM SCT250
     FM030700 17005KT P6SM OVC120
     FM031200 17008KT 3SM -SN OVC040
     FM031400 18009KT 2SM -SN OVC015
     FM032100 27013G20KT 2SM -SHSN OVC015
     FM040000 29019G28KT 3SM -SHSN BLSN BKN025=

USA.gov is the U.S. government's official web portal to all federal, state and local government web resources and services.